Taylorville, Illinois
Current Conditions -  °F | °C
As of 8:15 PM on Monday 22 Dec 2014 (Local Time) from KTAZ Reporting Station
Haze Haze  
Wind Chill: 39°   Ceiling: 500
Heat Index: 45°   Visibility: 3mi
Dew Point: 45°   Wind: 12mph
Humidity: 100%   Direction: 140°SE
Pressure: 29.54"   Gusts: 17mph
Location:  39.55°N, 89.29°W
Report Text: KTAZ 230215Z AUTO 14010G15KT 3SM BR OVC005 07/07 A2954 RMK AO2
Loading
Personal Weather Stations






























Interactive Weather Map New forecast layout! Learn more

10-Day Weather Forecast

Advertisements
Track Severe Weather on mobile